Terminal Aerodrome Forecast
Issued by NWS Wilmington, OH

Current Version | Previous Version | Graphics & Text | Print | Product List | Glossary On
Versions: 1 2 3 4 5 6 7 8 9 10 11 12 13 14 15 16 17 18 19 20 21 22 23 24 25
515
FTUS41 KILN 081229 AAA
TAFILN
TAF AMD
KILN 081229Z 0812/0912 27010KT P6SM -SHRA BKN030 OVC120
      TEMPO 0812/0815 BKN005
     FM090200 27010KT 5SM -SN BKN015 OVC025=

USA.gov is the U.S. government's official web portal to all federal, state and local government web resources and services.